Record high temperature 100.8°F Record low temperature -75.5°F Record high gust 121.0 mph Record high average 61.8 mph Record daily rain 2.61 in. Record low windchill -106.6°F Record high barometer 31.889 in. Record low barometer 23.642 in.
Daily high pressure 30.207 in. Daily low pressure 29.804 in. Daily low windchill 21.5°F Daily high heat index 69.2°F Daily high gust speed 23.1 mph SSW Daily high average speed 14.3 mph SSW
Weather Data
LAST READING AT TIME: 22:30 PM DATE: April 15 2014, time of next update: 10:40 pm
Current WeatherNight time/Dry Current Temperature 48.3°F (9.1°C), Apparent temp 45.7°F
Maximum Temperature (since midnight)69.2°F at: 3:05 PM Minimum Temperature (since midnight)21.5°F at: 5:53 AM
Average windspeed (ten minute)0.0 mph Wind Direction (ten minute)SSW (202°)
Windchill Temperature 48.3°F Maximum Gust (last hour)3.2 mph at: 10:12 PM
Maximum Gust (since midnight)23.1 mph at: 4:37 PM Maximum 1 minute average (since midnight)14.3 mph at: 4:38 PM
Rainfall (last hour)0.00 in. (0.0 mm) Rainfall (since midnight)0.00 in. (0.0 mm) ---
Rainfall This month 0.58 in. (14.7 mm) Rainfall To date this year 1.46 in. (37.2 mm)
Maximum rain per minute (last hour)0.00 in/min Maximum rain per hour (last 6 hours)0.00 in/hour
Yesterdays rainfall 0.04 in DewPoint 25.1°F (Wet Bulb :39.9°F )
Humidity 40 %, Humidex 42.9°F Barometer corrected to msl29.830 in. (1010.2 hPa)
Pressure change -0.00 in. (last hour) Trend (last hour)STEADY
Pressure change (last 12 hours)-0.21 in Pressure change (last 6 hours)-0.01 in

This page is updated from recent data collected by a DAVIS WMII weather station Use the Reload or Refresh facility on your browser to retrieve the latest data.


Click here for the last 24 hour graph
Click here for the last 48 hour graph
Click here for the last 72 hour graph
Click here for the month to date graph


Weather report/warning/Metars

COLORADO SPRINGS MUNI, CO, United States (KCOS) 38-49N 104-43W 1856M
Apr 15, 2014 - 11:54 PM EDT / 2014.04.16 0354 UTC
Wind: from the WNW (300 degrees) at 9 MPH (8 KT):0
Visibility: 10 mile(s):0
Sky conditions: partly cloudy
Temperature: 55.0 F (12.8 C)
Dew Point: 3.9 F (-15.6 C)
Relative Humidity: 12%
Pressure (altimeter): 29.78 in. Hg (1008 hPa)
ob: KCOS 160354Z 30008KT 10SM SCT240 13/M16 A2978 RMK AO2 SLP044 T01281156
cycle: 4
Air Force Academy, CO, United States (KAFF) 38-58N 104-49W 1999M
Apr 15, 2014 - 11:58 PM EDT / 2014.04.16 0358 UTC
Wind: from the N (360 degrees) at 6 MPH (5 KT):0
Visibility: 10 mile(s):0
Sky conditions: clear
Temperature: 48.2 F (9.0 C)
Dew Point: 8.4 F (-13.1 C)
Relative Humidity: 19%
Pressure (altimeter): 29.79 in. Hg (1008 hPa)
ob: KAFF 160358Z AUTO 36005KT 10SM CLR 09/M13 A2979 RMK AO2 SLPNO T00901131
cycle: 4
Fort Carson, CO, United States (KFCS) 38-42N 104-46W 1789M
Apr 15, 2014 - 11:58 PM EDT / 2014.04.16 0358 UTC
Wind: from the S (190 degrees) at 14 MPH (12 KT):0
Visibility: 10 mile(s):0
Sky conditions: clear
Temperature: 51.6 F (10.9 C)
Dew Point: 10.9 F (-11.7 C)
Relative Humidity: 19%
Pressure (altimeter): 29.76 in. Hg (1007 hPa)
ob: KFCS 160358Z AUTO 19012KT 10SM CLR 11/M12 A2976 RMK AO2 SLPNO T01091117 
cycle: 4



The data is logged at two minute intervals, but there is data recorded every minute. Best viewed in 800 x 600 and True colour.

Use the RELOAD facility on your browser to retrieve the latest data.

Click here for a daily update of the averages/extremes to date for the month
Created by "Weather Display" software version 10.37R Build 78 at this start time/date 08:20 am 4/11/2014